Impacts METAR Board
IDs:

KFLL - Ft Lauderdale-Hollyw, FL, US

Updated at: 0800 UTC 25 May 2020
Potential Impact None Slight Moderate High
Time 24/20Z 24/21Z 24/22Z 24/23Z 25/00Z 25/01Z 25/02Z 25/03Z 25/04Z 25/05Z 25/06Z 25/07Z 25/08Z
Temp78 78 77 77 76 76 77 75 76 76 77 77 77
Dewpt74 74 74 74 73 73 70 72 72 72 73 74 75
Altim29.94 29.93 29.92 29.92 29.92 29.92 29.93 29.93 29.92 29.91 29.89 29.87 29.86
VIS10 10 10 4 4 10 10 10 8 8 4 2 2
CIG60 43 33 34 25 18 31 50 60 60 18 18 18
CoverOVCOVCOVCOVCOVCOVCOVCOVCOVCOVCOVCOVCOVC
FltCatVFRVFRVFRMVFRMVFRMVFRVFRVFRVFRVFRMVFRIFRIFR
WX-RA-RA-RA+RA BR-RA BR-----RA-RA-RA-RA BR+RA BR+RA BR
WDir110100110100909010011090100110100120
WSpd8 14 10 9 21 18 22 22 17 20 18 16 13
WGst-- 18 -- -- 27 23 27 27 -- 24 28 -- 20
Raw hourly METARs
KFLL 241953Z 11008KT 10SM -RA SCT016 BKN060 OVC075 26/23 A2994 RMK AO2 SLP138 P0000 T02560233 $
KFLL 242053Z 10014G18KT 10SM -RA SCT020 BKN043 OVC055 26/23 A2993 RMK AO2 SLP135 CB N-NE MOV NW P0001 60002 T02560233 56014 $
KFLL 242153Z 11010KT 10SM -RA SCT022 BKN033 OVC065 25/23 A2992 RMK AO2 SLP131 CB SW MOV NW P0007 T02500233 $
KFLL 242253Z 10009KT 4SM R10L/3500VP6000FT +RA BR SCT024CB BKN034 OVC060 25/23 A2992 RMK AO2 SLP130 CB NE AND SE MOV NW P0008 T02500233 $
KFLL 242353Z 09021G27KT 4SM -RA BR SCT015 BKN025CB OVC055 24/23 A2992 RMK AO2 PK WND 09027/2353 RAE06B53 SLP130 CB ALQDS MOV NW P0001 60018 T02440228 10261 20239 56005 $
KFLL 250053Z 09018G23KT 10SM BKN018 BKN025CB OVC034 24/23 A2992 RMK AO2 PK WND 10027/0020 RAE41 SLP132 CB W-N MOV NW P0013 T02440228 $
KFLL 250153Z 10022G27KT 10SM SCT018 BKN031CB OVC046 25/21 A2993 RMK AO2 PK WND 10029/0138 SLP133 CB SE-SW MOV NW T02500211 $
KFLL 250253Z COR 11022G27KT 10SM -RA SCT018CB BKN050 OVC080 24/22 A2993 RMK AO2 PK WND 10031/0209 RAB19 SLP135 CB NE-SE MOV NW P0001 60014 T02390222 51005 $
KFLL 250353Z 09017KT 8SM -RA FEW015 SCT018 OVC060 24/22 A2992 RMK AO2 PK WND 09030/0257 RAE0255B20 SLP132 P0000 T02440222 $
KFLL 250453Z 10020G24KT 8SM -RA SCT014 SCT043 OVC060 24/22 A2991 RMK AO2 PK WND 09027/0356 SLP126 P0000 T02440222 402720228 $
KFLL 250553Z 11018G28KT 4SM -RA BR BKN018 OVC070 25/23 A2989 RMK AO2 PK WND 12028/0546 SLP120 P0001 60015 T02500228 10256 20239 58015 $
KFLL 250653Z 10016KT 2SM +RA BR FEW012 BKN018 OVC065 25/23 A2987 RMK AO2 PK WND 10026/0613 SLP114 P0014 T02500233 $
KFLL 250753Z 12013G20KT 2SM +RA BR FEW012 BKN018 OVC048 25/24 A2986 RMK AO2 SLP109 P0012 T02500239 $



Page loaded:  08:27 UTC  |   01:27 AM Pacific  |   02:27 AM Mountain  |   03:27 AM Central  |   04:27 AM Eastern

 

ADVISORIES

FORECASTS

FORECASTS

OBSERVATIONS

USER TOOLS

ABOUT US